Time;durP1;ratioP1;P1;durP2;ratioP2;P2;SDS_P1;SDS_P2;PMS_P1;PMS_P2;Temp;Humidity;BMP_temperature;BMP_pressure;BME280_temperature;BME280_humidity;BME280_pressure;Samples;Min_cycle;Max_cycle;Signal;HPM_P1;HPM_P2
2023/06/06 00:01:41;;;;;;;8.20;7.50;;;17.20;99.90;;;;;;6324186;28;20468;-65
2023/06/06 00:04:45;;;;;;;8.93;8.13;;;17.20;99.90;;;;;;6324470;28;20460;-65
2023/06/06 00:07:49;;;;;;;8.50;7.63;;;17.20;99.90;;;;;;6323835;28;20483;-65
2023/06/06 00:10:52;;;;;;;8.37;7.60;;;17.10;99.90;;;;;;6324115;28;20483;-65
2023/06/06 00:13:56;;;;;;;8.40;7.60;;;17.10;99.90;;;;;;6323818;28;20491;-65
2023/06/06 00:17:01;;;;;;;10.13;8.77;;;17.00;99.90;;;;;;6324183;28;20474;-65
2023/06/06 00:20:09;;;;;;;9.27;7.90;;;17.00;99.90;;;;;;6323609;28;20478;-65
2023/06/06 00:23:13;;;;;;;7.63;7.03;;;17.00;99.90;;;;;;6323992;28;20475;-65
2023/06/06 00:26:16;;;;;;;8.63;7.83;;;16.90;99.90;;;;;;6323647;28;20472;-65
2023/06/06 00:29:19;;;;;;;8.17;7.43;;;16.90;99.90;;;;;;6324170;28;20501;-65
2023/06/06 00:32:24;;;;;;;8.60;7.80;;;16.90;99.90;;;;;;6315572;28;20568;-65
2023/06/06 00:35:27;;;;;;;11.90;8.13;;;16.90;99.90;;;;;;6323739;28;20472;-65
2023/06/06 00:38:30;;;;;;;7.87;7.17;;;16.90;99.90;;;;;;6323440;28;20995;-65
2023/06/06 00:41:34;;;;;;;8.27;7.33;;;16.90;99.90;;;;;;6322993;28;20549;-65
2023/06/06 00:44:37;;;;;;;8.87;8.07;;;16.90;99.90;;;;;;6326407;28;20480;-65
2023/06/06 00:47:42;;;;;;;7.60;6.90;;;16.90;99.90;;;;;;6328098;28;20956;-65
2023/06/06 00:50:47;;;;;;;7.43;6.80;;;16.90;99.90;;;;;;6353210;27;20764;-65
2023/06/06 00:53:50;;;;;;;7.23;6.63;;;16.90;99.90;;;;;;6328735;28;20443;-65
2023/06/06 00:56:55;;;;;;;8.50;7.80;;;17.00;99.90;;;;;;6328030;28;20917;-65
2023/06/06 00:59:59;;;;;;;8.07;7.30;;;17.00;99.90;;;;;;6328113;28;20474;-65
2023/06/06 01:03:09;;;;;;;8.30;7.50;;;16.90;99.90;;;;;;6328139;28;20452;-65
2023/06/06 01:06:13;;;;;;;9.87;7.70;;;17.00;99.90;;;;;;6328242;28;20472;-65
2023/06/06 01:09:16;;;;;;;7.57;6.97;;;17.00;99.90;;;;;;6328315;28;20469;-65
2023/06/06 01:12:29;;;;;;;7.80;7.10;;;17.00;99.90;;;;;;6327899;28;20475;-65
2023/06/06 01:15:39;;;;;;;8.00;7.30;;;17.00;99.90;;;;;;6327823;28;20460;-65
2023/06/06 01:18:47;;;;;;;8.03;7.43;;;17.00;99.90;;;;;;6327573;28;20475;-65
2023/06/06 01:21:54;;;;;;;7.67;7.07;;;17.00;99.90;;;;;;6327490;28;20606;-65
2023/06/06 01:24:58;;;;;;;8.93;7.97;;;17.00;99.90;;;;;;6327908;28;20502;-65
2023/06/06 01:28:04;;;;;;;8.40;7.53;;;17.00;99.90;;;;;;6327004;28;20491;-65
2023/06/06 01:31:11;;;;;;;7.80;7.10;;;16.90;99.90;;;;;;6327256;28;20543;-65
2023/06/06 01:34:22;;;;;;;8.33;7.63;;;17.00;99.90;;;;;;6327680;28;20487;-64
2023/06/06 01:37:35;;;;;;;7.87;7.27;;;17.00;99.90;;;;;;6318583;28;20475;-65
2023/06/06 01:40:40;;;;;;;7.87;7.17;;;17.10;99.90;;;;;;6327343;28;20472;-64
2023/06/06 01:43:48;;;;;;;7.90;7.20;;;17.00;99.90;;;;;;6326923;28;20621;-65
2023/06/06 01:46:51;;;;;;;7.13;6.53;;;17.00;99.90;;;;;;6327350;28;20474;-65
2023/06/06 01:49:54;;;;;;;7.80;7.00;;;17.10;99.90;;;;;;6326923;28;20488;-65
2023/06/06 01:52:59;;;;;;;6.90;6.30;;;17.00;99.90;;;;;;6327305;28;20595;-65
2023/06/06 01:56:02;;;;;;;7.63;6.90;;;17.00;99.90;;;;;;6326601;28;20474;-65
2023/06/06 01:59:05;;;;;;;9.07;6.53;;;17.00;99.90;;;;;;6327034;28;20456;-65
2023/06/06 02:02:09;;;;;;;6.87;6.27;;;17.00;99.90;;;;;;6326647;28;20887;-65
2023/06/06 02:05:12;;;;;;;7.50;6.80;;;17.00;99.90;;;;;;6326924;28;20474;-65
2023/06/06 02:08:17;;;;;;;9.90;7.47;;;16.90;99.90;;;;;;6326628;28;20808;-65
2023/06/06 02:11:23;;;;;;;7.57;6.87;;;17.00;99.90;;;;;;6326104;28;20834;-65
2023/06/06 02:14:26;;;;;;;7.87;7.23;;;16.90;99.90;;;;;;6326626;28;20502;-65
2023/06/06 02:17:29;;;;;;;9.40;7.53;;;16.90;99.90;;;;;;6326176;28;20475;-65
2023/06/06 02:20:32;;;;;;;6.80;6.10;;;16.90;99.90;;;;;;6326979;28;20568;-65
2023/06/06 02:23:37;;;;;;;7.73;7.13;;;16.90;99.90;;;;;;6326163;28;20467;-65
2023/06/06 02:26:40;;;;;;;7.90;7.30;;;16.80;99.90;;;;;;6326223;28;20484;-65
2023/06/06 02:29:43;;;;;;;8.73;7.50;;;16.90;99.90;;;;;;6350673;27;20458;-65
2023/06/06 02:32:47;;;;;;;8.00;6.87;;;16.90;99.90;;;;;;6351745;27;20432;-65
2023/06/06 02:35:50;;;;;;;7.30;6.60;;;16.90;99.90;;;;;;6351235;28;20768;-65
2023/06/06 02:38:55;;;;;;;7.87;7.30;;;17.00;99.90;;;;;;6346750;27;20439;-65
2023/06/06 02:41:58;;;;;;;8.10;7.30;;;17.00;99.90;;;;;;6350543;27;20479;-65
2023/06/06 02:45:01;;;;;;;10.50;7.90;;;17.00;99.90;;;;;;6350466;28;20791;-65
2023/06/06 02:48:05;;;;;;;6.80;6.30;;;17.00;99.90;;;;;;6350910;28;20554;-65
2023/06/06 02:51:08;;;;;;;7.10;6.50;;;17.00;99.90;;;;;;6350496;27;20490;-65
2023/06/06 02:54:13;;;;;;;8.10;6.50;;;17.00;99.90;;;;;;6350980;28;20467;-65
2023/06/06 02:57:16;;;;;;;8.10;7.40;;;17.00;99.90;;;;;;6350550;28;20470;-65
2023/06/06 03:00:21;;;;;;;6.70;6.10;;;17.00;99.90;;;;;;6351161;28;20493;-65
2023/06/06 03:03:24;;;;;;;6.57;6.07;;;17.00;99.90;;;;;;6350595;27;20475;-65
2023/06/06 03:06:28;;;;;;;7.87;7.27;;;17.00;99.90;;;;;;6349742;28;20946;-64
2023/06/06 03:09:33;;;;;;;7.73;6.50;;;17.10;99.90;;;;;;6350941;28;20471;-64
2023/06/06 03:12:36;;;;;;;7.00;6.47;;;17.10;99.90;;;;;;6350965;27;20601;-64
2023/06/06 03:15:40;;;;;;;6.77;6.07;;;17.10;99.90;;;;;;6350576;28;20504;-65
2023/06/06 03:18:46;;;;;;;6.40;5.80;;;17.10;99.90;;;;;;6350446;27;20474;-65
2023/06/06 03:21:51;;;;;;;6.10;5.60;;;17.10;99.90;;;;;;6349879;28;20472;-65
2023/06/06 03:24:56;;;;;;;7.47;6.50;;;17.10;99.90;;;;;;6350286;28;20564;-65
2023/06/06 03:27:59;;;;;;;6.80;6.20;;;17.10;99.90;;;;;;6350629;28;20539;-65
2023/06/06 03:31:05;;;;;;;6.80;6.20;;;17.20;99.90;;;;;;6350465;27;20939;-65
2023/06/06 03:34:09;;;;;;;9.70;7.20;;;17.20;99.90;;;;;;6351236;28;20478;-65
2023/06/06 03:37:12;;;;;;;7.40;6.80;;;17.20;99.90;;;;;;6350316;27;20467;-65
2023/06/06 03:40:17;;;;;;;6.60;6.13;;;17.10;99.90;;;;;;6350314;27;20481;-64
2023/06/06 03:43:20;;;;;;;6.30;5.47;;;17.20;99.90;;;;;;6348918;27;20480;-65
2023/06/06 03:46:24;;;;;;;7.17;6.57;;;17.20;99.90;;;;;;6349207;28;20474;-64
2023/06/06 03:49:28;;;;;;;10.43;6.23;;;17.20;99.90;;;;;;6348829;28;20479;-64
2023/06/06 03:52:31;;;;;;;6.90;6.27;;;17.20;99.90;;;;;;6349859;28;20532;-64
2023/06/06 03:55:37;;;;;;;6.97;6.37;;;17.20;99.90;;;;;;6349665;28;20475;-64
2023/06/06 03:58:42;;;;;;;6.23;5.63;;;17.20;99.90;;;;;;6350000;28;20547;-65
2023/06/06 04:01:45;;;;;;;5.50;5.10;;;17.30;99.90;;;;;;6348985;27;20484;-66
2023/06/06 04:04:51;;;;;;;5.60;5.10;;;17.30;99.90;;;;;;6349750;28;20538;-65
2023/06/06 04:07:55;;;;;;;6.73;6.03;;;17.30;99.90;;;;;;6349389;28;20982;-65
2023/06/06 04:10:59;;;;;;;6.30;5.80;;;17.30;99.90;;;;;;6349850;28;20475;-65
2023/06/06 04:14:02;;;;;;;6.63;6.03;;;17.40;99.90;;;;;;6349219;28;20472;-65
2023/06/06 04:17:07;;;;;;;6.00;5.50;;;17.40;99.90;;;;;;6349785;27;20608;-65
2023/06/06 04:20:11;;;;;;;7.20;6.60;;;17.40;99.90;;;;;;6354683;28;20279;-65
2023/06/06 04:23:15;;;;;;;6.70;6.10;;;17.40;99.90;;;;;;6354365;28;20486;-65
2023/06/06 04:26:25;;;;;;;7.30;6.70;;;17.40;99.90;;;;;;6354449;28;20534;-64
2023/06/06 04:29:28;;;;;;;7.50;6.90;;;17.40;99.90;;;;;;6354062;28;20476;-64
2023/06/06 04:32:31;;;;;;;8.73;6.17;;;17.50;99.90;;;;;;6354267;28;20463;-65
2023/06/06 04:35:34;;;;;;;6.63;6.13;;;17.60;99.90;;;;;;6353990;27;20527;-64
2023/06/06 04:38:39;;;;;;;10.43;7.30;;;17.60;99.90;;;;;;6353686;28;20501;-64
2023/06/06 04:41:43;;;;;;;7.00;6.40;;;17.60;99.90;;;;;;6353414;28;20895;-64
2023/06/06 04:44:50;;;;;;;8.07;7.20;;;17.60;99.90;;;;;;6353394;27;20482;-64
2023/06/06 04:47:55;;;;;;;8.27;7.57;;;17.70;99.90;;;;;;6348524;28;20450;-64
2023/06/06 04:50:59;;;;;;;7.77;7.07;;;17.70;99.90;;;;;;6353073;27;20982;-64
2023/06/06 04:54:05;;;;;;;7.97;7.27;;;17.90;99.90;;;;;;6351014;28;20534;-65
2023/06/06 04:57:15;;;;;;;7.50;6.90;;;17.90;99.90;;;;;;6328685;28;20479;-65
2023/06/06 05:00:19;;;;;;;11.83;6.70;;;18.00;99.90;;;;;;6327713;28;20233;-64
2023/06/06 05:03:22;;;;;;;7.47;6.87;;;18.00;99.90;;;;;;6325715;28;20728;-65
2023/06/06 05:06:27;;;;;;;7.30;6.70;;;18.10;99.90;;;;;;6326783;28;20468;-64
2023/06/06 05:09:30;;;;;;;7.70;6.90;;;18.10;99.90;;;;;;6327338;28;20230;-64
2023/06/06 05:12:35;;;;;;;8.60;7.30;;;18.30;99.90;;;;;;6327792;28;20218;-65
2023/06/06 05:15:38;;;;;;;8.70;7.80;;;18.30;99.90;;;;;;6328108;28;20667;-63
2023/06/06 05:18:41;;;;;;;8.47;7.77;;;18.30;99.90;;;;;;6328045;28;20460;-63
2023/06/06 05:21:44;;;;;;;9.07;8.17;;;18.40;99.90;;;;;;6327587;28;20260;-63
2023/06/06 05:24:47;;;;;;;8.63;7.93;;;18.40;99.90;;;;;;6327570;28;20230;-63
2023/06/06 05:27:52;;;;;;;7.90;7.23;;;18.50;99.90;;;;;;6327302;28;20233;-63
2023/06/06 05:30:56;;;;;;;7.83;7.13;;;18.50;99.90;;;;;;6326482;28;20226;-63
2023/06/06 05:33:59;;;;;;;7.93;7.33;;;18.50;99.90;;;;;;6327364;28;20230;-63
2023/06/06 05:37:03;;;;;;;10.27;8.10;;;18.50;99.90;;;;;;6327341;28;20234;-63
2023/06/06 05:40:07;;;;;;;10.20;7.40;;;18.60;99.90;;;;;;6326632;28;20544;-63
2023/06/06 05:43:14;;;;;;;8.87;8.10;;;18.60;99.90;;;;;;6327199;28;20233;-63
2023/06/06 05:46:18;;;;;;;9.27;7.10;;;18.60;99.90;;;;;;6327321;28;20701;-63
2023/06/06 05:49:21;;;;;;;7.90;7.20;;;18.60;99.90;;;;;;6327150;28;20560;-63
2023/06/06 05:52:24;;;;;;;7.80;7.07;;;18.70;99.90;;;;;;6327045;28;20237;-63
2023/06/06 05:55:28;;;;;;;8.90;6.90;;;18.70;99.90;;;;;;6327650;28;20233;-63
2023/06/06 05:58:33;;;;;;;7.70;7.10;;;18.80;99.90;;;;;;6326626;28;20229;-63
2023/06/06 06:01:37;;;;;;;7.40;6.60;;;18.90;99.90;;;;;;6326942;28;20230;-63
2023/06/06 06:04:40;;;;;;;10.10;6.80;;;19.10;99.90;;;;;;6326846;28;20226;-64
2023/06/06 06:07:43;;;;;;;7.30;6.70;;;19.30;99.90;;;;;;6326639;28;20238;-63
2023/06/06 06:10:46;;;;;;;6.83;6.27;;;19.50;99.90;;;;;;6326800;28;20725;-63
2023/06/06 06:13:50;;;;;;;6.43;5.83;;;19.70;99.90;;;;;;6326647;28;20230;-63
2023/06/06 06:16:54;;;;;;;8.50;6.40;;;19.90;99.90;;;;;;6326738;28;20661;-63
2023/06/06 06:19:57;;;;;;;7.50;6.30;;;20.20;99.90;;;;;;6326482;28;20234;-62
2023/06/06 06:23:00;;;;;;;7.40;5.60;;;20.30;99.90;;;;;;6326461;28;20233;-63
2023/06/06 06:26:03;;;;;;;6.57;5.83;;;20.30;99.90;;;;;;6326539;28;20234;-63
2023/06/06 06:29:08;;;;;;;7.00;6.40;;;20.40;99.90;;;;;;6326450;28;20226;-63
2023/06/06 06:32:11;;;;;;;6.43;5.80;;;20.40;99.90;;;;;;6326297;28;20278;-63
2023/06/06 06:35:18;;;;;;;6.30;5.80;;;20.40;99.90;;;;;;6326402;28;20222;-63
2023/06/06 06:38:24;;;;;;;6.20;5.70;;;20.50;99.90;;;;;;6326093;28;20256;-63
2023/06/06 06:41:28;;;;;;;7.00;6.40;;;20.70;99.90;;;;;;6325910;28;20230;-63
2023/06/06 06:44:32;;;;;;;6.90;6.30;;;21.00;99.90;;;;;;6325638;28;20275;-63
2023/06/06 06:47:36;;;;;;;7.50;6.67;;;21.10;99.90;;;;;;6325563;28;20234;-63
2023/06/06 06:50:39;;;;;;;6.27;5.77;;;21.20;99.90;;;;;;6325309;28;20245;-63
2023/06/06 06:53:42;;;;;;;5.57;5.07;;;21.30;99.90;;;;;;6316084;28;20532;-63
2023/06/06 06:56:45;;;;;;;6.30;5.80;;;22.00;99.90;;;;;;6325017;28;20232;-63
2023/06/06 06:59:50;;;;;;;5.90;5.40;;;22.80;99.90;;;;;;6325500;28;20545;-63
2023/06/06 07:02:53;;;;;;;5.93;5.33;;;23.90;99.90;;;;;;6325165;28;20626;-63
2023/06/06 07:05:57;;;;;;;6.70;5.93;;;24.40;99.90;;;;;;6325254;28;20206;-63
2023/06/06 07:09:04;;;;;;;5.90;5.47;;;24.30;99.70;;;;;;6325404;28;20201;-63
2023/06/06 07:12:08;;;;;;;6.17;4.40;;;24.30;99.80;;;;;;6325481;28;20307;-63
2023/06/06 07:15:13;;;;;;;5.57;5.07;;;24.30;99.40;;;;;;6324844;28;20705;-63
2023/06/06 07:18:16;;;;;;;5.50;5.00;;;24.30;98.80;;;;;;6325035;28;20240;-63
2023/06/06 07:21:21;;;;;;;5.50;4.90;;;24.60;98.70;;;;;;6325177;28;20238;-63
2023/06/06 07:24:24;;;;;;;4.87;4.47;;;24.80;98.30;;;;;;6325141;28;20234;-63
2023/06/06 07:27:29;;;;;;;5.50;5.00;;;25.60;97.20;;;;;;6324813;28;20240;-63
2023/06/06 07:30:33;;;;;;;5.07;4.67;;;26.70;95.40;;;;;;6324984;28;20229;-63
2023/06/06 07:33:36;;;;;;;5.87;5.17;;;27.10;93.40;;;;;;6325204;28;20221;-63
2023/06/06 07:36:39;;;;;;;5.50;5.00;;;27.40;92.90;;;;;;6324889;28;20225;-63
2023/06/06 07:39:44;;;;;;;4.20;3.90;;;27.40;92.50;;;;;;6324696;28;20240;-63
2023/06/06 07:42:47;;;;;;;5.20;4.70;;;27.80;91.20;;;;;;6324467;28;20226;-63
2023/06/06 07:45:52;;;;;;;5.13;4.73;;;27.90;90.60;;;;;;6324277;28;20290;-63
2023/06/06 07:48:55;;;;;;;4.50;4.20;;;27.60;90.10;;;;;;6324758;28;20221;-63
2023/06/06 07:51:58;;;;;;;5.47;5.03;;;27.20;90.30;;;;;;6324309;28;20225;-63
2023/06/06 07:55:03;;;;;;;5.33;4.83;;;26.10;91.20;;;;;;6324356;28;20236;-63
2023/06/06 07:58:10;;;;;;;5.03;4.63;;;25.30;92.30;;;;;;6324628;28;20310;-63
2023/06/06 08:01:14;;;;;;;5.43;4.93;;;25.10;93.00;;;;;;6324517;28;20276;-63
2023/06/06 08:04:18;;;;;;;5.37;4.87;;;25.00;93.40;;;;;;6324843;28;20271;-63
2023/06/06 08:07:21;;;;;;;6.27;5.77;;;25.00;93.40;;;;;;6324502;28;20222;-63
2023/06/06 08:10:24;;;;;;;5.20;4.80;;;24.60;93.90;;;;;;6322824;28;20671;-63
2023/06/06 08:13:27;;;;;;;5.83;4.90;;;24.80;94.20;;;;;;6324216;28;20279;-63
2023/06/06 08:16:32;;;;;;;5.37;4.97;;;25.00;94.20;;;;;;6323906;28;20239;-63
2023/06/06 08:19:35;;;;;;;7.23;6.63;;;25.20;93.80;;;;;;6323151;28;20217;-63
2023/06/06 08:22:39;;;;;;;6.30;5.80;;;25.30;93.90;;;;;;6321070;28;20255;-63
2023/06/06 08:25:42;;;;;;;6.30;5.80;;;25.30;93.70;;;;;;6322658;28;20226;-63
2023/06/06 08:28:45;;;;;;;9.50;5.80;;;25.20;93.80;;;;;;6323862;28;20221;-63
2023/06/06 08:31:50;;;;;;;5.90;5.47;;;25.20;94.10;;;;;;6322984;28;20233;-63
2023/06/06 08:34:53;;;;;;;12.13;6.00;;;25.20;94.10;;;;;;6325063;28;20220;-63
2023/06/06 08:37:56;;;;;;;6.70;6.10;;;25.40;93.70;;;;;;6323475;28;20225;-63
2023/06/06 08:41:02;;;;;;;6.70;6.10;;;25.10;93.50;;;;;;6323391;28;20658;-63
2023/06/06 08:44:05;;;;;;;6.37;5.83;;;25.40;93.70;;;;;;6323346;28;20321;-63
2023/06/06 08:47:12;;;;;;;7.23;6.70;;;25.60;92.90;;;;;;6323850;28;20230;-63
2023/06/06 08:50:16;;;;;;;6.83;6.23;;;25.50;93.00;;;;;;6323879;28;20582;-63
2023/06/06 08:53:20;;;;;;;6.03;5.43;;;25.50;93.40;;;;;;6323757;28;20663;-63
2023/06/06 08:56:24;;;;;;;6.50;5.97;;;25.60;93.30;;;;;;6323443;28;20700;-63
2023/06/06 08:59:28;;;;;;;6.70;6.17;;;26.00;92.60;;;;;;6323110;28;20362;-63
2023/06/06 09:02:32;;;;;;;7.13;6.53;;;26.00;92.30;;;;;;6320249;28;20228;-63
2023/06/06 09:05:38;;;;;;;7.87;7.13;;;26.40;92.30;;;;;;6326015;28;20308;-63
2023/06/06 09:08:41;;;;;;;6.63;6.10;;;26.30;91.50;;;;;;6327704;28;20235;-63
2023/06/06 09:11:45;;;;;;;8.00;7.30;;;26.10;91.90;;;;;;6352211;28;20228;-63
2023/06/06 09:14:48;;;;;;;6.97;6.27;;;26.40;91.40;;;;;;6339130;28;20221;-63
2023/06/06 09:17:54;;;;;;;7.47;5.83;;;26.70;90.80;;;;;;6324836;28;20226;-63
2023/06/06 09:20:58;;;;;;;7.27;6.57;;;27.00;90.90;;;;;;6327593;28;20221;-63
2023/06/06 09:24:01;;;;;;;6.80;6.20;;;27.10;90.20;;;;;;6327831;28;20285;-63
2023/06/06 09:27:05;;;;;;;7.20;6.60;;;26.80;90.30;;;;;;6327537;28;20668;-63
2023/06/06 09:30:21;;;;;;;7.83;7.13;;;27.00;90.00;;;;;;6325274;28;20236;-63
2023/06/06 09:33:25;;;;;;;7.80;7.00;;;27.30;89.70;;;;;;6326493;28;20305;-63
2023/06/06 09:36:31;;;;;;;7.20;6.70;;;27.40;87.70;;;;;;6327368;28;20228;-63
2023/06/06 09:39:34;;;;;;;7.07;6.47;;;27.50;87.10;;;;;;6327146;28;20827;-63
2023/06/06 09:42:38;;;;;;;7.43;6.93;;;27.40;86.90;;;;;;6327028;28;20222;-64
2023/06/06 09:45:49;;;;;;;7.13;6.63;;;27.30;87.80;;;;;;6326941;28;20225;-65
2023/06/06 09:48:59;;;;;;;6.80;6.20;;;27.20;88.10;;;;;;6313228;28;20250;-64
2023/06/06 09:52:04;;;;;;;6.93;6.27;;;26.80;89.10;;;;;;6302384;28;20309;-64
2023/06/06 09:55:08;;;;;;;7.00;5.90;;;26.80;88.90;;;;;;6301514;28;20559;-63
2023/06/06 09:58:15;;;;;;;6.53;5.93;;;26.70;89.20;;;;;;6301924;28;20708;-65
2023/06/06 10:01:19;;;;;;;8.50;6.33;;;26.20;90.60;;;;;;6300477;28;20264;-63
2023/06/06 10:04:26;;;;;;;7.23;6.50;;;26.30;90.10;;;;;;6339645;28;20285;-64
2023/06/06 10:07:30;;;;;;;5.93;5.43;;;26.50;89.00;;;;;;6337089;28;20222;-64
2023/06/06 10:10:33;;;;;;;6.13;5.63;;;26.60;89.30;;;;;;6325669;28;20688;-64
2023/06/06 10:13:37;;;;;;;5.67;5.27;;;26.50;90.10;;;;;;6326057;28;20221;-63
2023/06/06 10:16:43;;;;;;;5.70;5.27;;;26.00;90.60;;;;;;6323575;28;20249;-63
2023/06/06 10:19:48;;;;;;;6.50;5.00;;;25.60;91.30;;;;;;6325703;28;20240;-64
2023/06/06 10:22:54;;;;;;;5.40;4.90;;;25.60;91.80;;;;;;6325843;28;20309;-64
2023/06/06 10:26:00;;;;;;;5.70;5.30;;;25.30;92.00;;;;;;6322941;28;20530;-63
2023/06/06 10:29:06;;;;;;;6.80;5.03;;;25.00;92.70;;;;;;6325158;28;20218;-64
2023/06/06 10:32:15;;;;;;;7.13;6.37;;;25.00;93.00;;;;;;6325111;28;20224;-64
2023/06/06 10:35:21;;;;;;;5.93;5.10;;;25.30;93.10;;;;;;6325745;28;20226;-64
2023/06/06 10:38:24;;;;;;;5.40;4.90;;;25.40;92.40;;;;;;6325817;28;20232;-63
2023/06/06 10:41:41;;;;;;;4.67;4.27;;;25.70;91.60;;;;;;6300373;28;20226;-63
2023/06/06 10:44:56;;;;;;;5.50;5.00;;;26.30;91.30;;;;;;6300044;28;20320;-63
2023/06/06 10:48:02;;;;;;;5.23;4.87;;;26.80;90.10;;;;;;6323030;28;20216;-64
2023/06/06 10:51:08;;;;;;;5.50;5.00;;;26.90;89.60;;;;;;6325539;28;20236;-64
2023/06/06 10:54:19;;;;;;;4.73;4.43;;;26.80;90.00;;;;;;6325210;28;20633;-63
2023/06/06 10:57:23;;;;;;;5.67;5.27;;;27.10;88.20;;;;;;6325523;28;20350;-64
2023/06/06 11:00:26;;;;;;;4.13;3.70;;;26.90;88.20;;;;;;6325028;28;20229;-64
2023/06/06 11:03:35;;;;;;;5.07;4.67;;;27.10;88.00;;;;;;6325125;28;20240;-64
2023/06/06 11:06:42;;;;;;;7.07;4.60;;;27.60;86.60;;;;;;6325858;28;20248;-64
2023/06/06 11:09:48;;;;;;;5.00;4.53;;;27.40;87.10;;;;;;6324376;28;20371;-61
2023/06/06 11:12:52;;;;;;;5.80;5.33;;;27.40;87.10;;;;;;6324493;28;20323;-61
2023/06/06 11:15:57;;;;;;;4.83;4.40;;;27.10;87.70;;;;;;6324514;28;20356;-60
2023/06/06 11:19:04;;;;;;;6.30;5.30;;;26.70;88.40;;;;;;6324238;28;20338;-61
2023/06/06 11:22:22;;;;;;;4.43;4.03;;;26.20;90.40;;;;;;6324897;28;20253;-62
2023/06/06 11:25:25;;;;;;;4.37;3.23;;;25.80;90.50;;;;;;6324991;28;20225;-60
2023/06/06 11:28:30;;;;;;;4.10;3.70;;;25.80;90.50;;;;;;6324073;28;20237;-60
2023/06/06 11:31:35;;;;;;;4.30;3.90;;;26.00;90.60;;;;;;6324115;28;20244;-61
2023/06/06 11:34:39;;;;;;;4.50;4.10;;;26.20;90.50;;;;;;6324106;28;20249;-61
2023/06/06 11:37:44;;;;;;;4.53;4.20;;;26.20;90.60;;;;;;6321232;28;20304;-60
2023/06/06 11:40:47;;;;;;;4.40;4.10;;;25.80;91.10;;;;;;6323505;28;20221;-61
2023/06/06 11:43:51;;;;;;;4.07;3.77;;;26.00;90.80;;;;;;6323499;28;20233;-61
2023/06/06 11:46:55;;;;;;;4.00;3.70;;;25.80;90.80;;;;;;6323432;28;20228;-60
2023/06/06 11:50:00;;;;;;;3.50;3.30;;;25.50;91.00;;;;;;6323614;28;20233;-60
2023/06/06 11:53:05;;;;;;;4.73;4.33;;;25.50;91.40;;;;;;6321050;28;20664;-60
2023/06/06 11:56:15;;;;;;;4.30;4.00;;;25.60;91.60;;;;;;6323665;28;20661;-61
2023/06/06 11:59:19;;;;;;;4.27;3.97;;;25.60;92.20;;;;;;6323461;28;20230;-63
2023/06/06 12:02:22;;;;;;;4.10;3.80;;;25.70;91.80;;;;;;6367679;27;20697;-64
2023/06/06 12:05:26;;;;;;;5.10;4.60;;;26.20;90.50;;;;;;6374585;27;20308;-64
2023/06/06 12:08:33;;;;;;;4.93;4.20;;;26.30;90.30;;;;;;6374500;27;20220;-65
2023/06/06 12:11:36;;;;;;;4.77;3.90;;;26.20;90.70;;;;;;6364861;27;20236;-66
2023/06/06 12:14:39;;;;;;;4.10;3.80;;;26.40;90.70;;;;;;6300031;28;20237;-67
2023/06/06 12:17:42;;;;;;;3.67;3.47;;;26.80;89.20;;;;;;6309023;28;20213;-62
2023/06/06 12:20:46;;;;;;;4.10;3.70;;;26.80;89.10;;;;;;6323289;28;20236;-62
2023/06/06 12:23:51;;;;;;;3.30;2.93;;;27.10;87.90;;;;;;6321492;28;20217;-62
2023/06/06 12:26:56;;;;;;;3.23;3.03;;;27.30;85.50;;;;;;6323674;28;20558;-62
2023/06/06 12:30:00;;;;;;;3.90;3.60;;;27.30;84.10;;;;;;6324567;28;20225;-62
2023/06/06 12:33:04;;;;;;;3.67;3.30;;;27.20;82.20;;;;;;6309270;28;20198;-64
2023/06/06 12:36:17;;;;;;;4.43;3.50;;;27.50;82.90;;;;;;6299473;28;20261;-67
2023/06/06 12:39:22;;;;;;;4.00;3.60;;;27.30;84.20;;;;;;6317331;28;20233;-63
2023/06/06 12:42:25;;;;;;;4.67;3.17;;;27.30;84.60;;;;;;6355126;28;20229;-63
2023/06/06 12:45:29;;;;;;;3.57;3.37;;;27.30;84.40;;;;;;6353511;28;20228;-63
2023/06/06 12:48:32;;;;;;;5.00;3.50;;;27.30;84.00;;;;;;6353591;28;20269;-64
2023/06/06 12:51:39;;;;;;;3.60;3.30;;;27.20;84.50;;;;;;6354118;28;20228;-64
2023/06/06 12:54:43;;;;;;;3.87;3.57;;;27.30;84.10;;;;;;6353483;28;20236;-64
2023/06/06 12:57:47;;;;;;;3.90;3.60;;;27.40;83.80;;;;;;6353371;28;20240;-64
2023/06/06 13:00:51;;;;;;;3.70;3.40;;;27.30;85.30;;;;;;6353018;28;20676;-65
2023/06/06 13:03:54;;;;;;;4.00;3.70;;;27.20;86.80;;;;;;6353679;27;20230;-64
2023/06/06 13:06:58;;;;;;;4.00;3.70;;;27.10;86.80;;;;;;6353529;27;20248;-64
2023/06/06 13:10:05;;;;;;;3.63;3.33;;;26.80;88.00;;;;;;6353690;28;20227;-65
2023/06/06 13:13:08;;;;;;;3.07;2.87;;;26.60;90.20;;;;;;6348538;28;20232;-63
2023/06/06 13:16:11;;;;;;;2.40;2.20;;;26.30;91.10;;;;;;6353302;28;20220;-61
2023/06/06 13:19:15;;;;;;;2.40;2.20;;;26.10;90.90;;;;;;6352905;28;20681;-63
2023/06/06 13:22:19;;;;;;;2.50;2.30;;;25.70;91.30;;;;;;6353074;28;20230;-63
2023/06/06 13:25:24;;;;;;;3.30;2.90;;;25.30;91.90;;;;;;6353161;27;20225;-63
2023/06/06 13:28:27;;;;;;;2.67;2.47;;;24.90;93.30;;;;;;6352502;28;20265;-61
2023/06/06 13:31:30;;;;;;;3.27;3.07;;;24.50;95.10;;;;;;6348631;28;20543;-63
2023/06/06 13:34:33;;;;;;;2.53;2.33;;;24.10;96.20;;;;;;6302279;28;20230;-62
2023/06/06 13:37:36;;;;;;;4.57;3.53;;;23.70;97.10;;;;;;6302424;28;20245;-63
2023/06/06 13:40:41;;;;;;;4.07;3.20;;;23.50;99.50;;;;;;6339893;28;20276;-62
2023/06/06 13:43:44;;;;;;;4.43;3.13;;;23.40;99.90;;;;;;6352217;28;20256;-62
2023/06/06 13:46:47;;;;;;;3.13;2.73;;;23.40;99.90;;;;;;6352240;28;20225;-62
2023/06/06 13:50:07;;;;;;;3.70;3.40;;;23.40;99.90;;;;;;6351589;28;20278;-62
2023/06/06 13:53:12;;;;;;;4.77;3.30;;;23.30;99.90;;;;;;6352559;28;20618;-62
2023/06/06 13:56:16;;;;;;;3.97;3.60;;;23.40;99.90;;;;;;6352598;27;20226;-62
2023/06/06 13:59:20;;;;;;;3.80;3.50;;;23.40;99.90;;;;;;6352332;28;20235;-63
2023/06/06 14:02:24;;;;;;;3.47;3.17;;;23.40;99.90;;;;;;6352117;28;20550;-62
2023/06/06 14:05:29;;;;;;;3.40;3.10;;;23.50;99.90;;;;;;6352349;28;20314;-60
2023/06/06 14:08:32;;;;;;;3.90;3.60;;;23.50;99.90;;;;;;6351667;28;20669;-59
2023/06/06 14:11:37;;;;;;;3.80;3.40;;;23.50;99.90;;;;;;6351683;28;20244;-60
2023/06/06 14:14:41;;;;;;;3.50;3.20;;;23.50;99.90;;;;;;6351924;27;20715;-60
2023/06/06 14:17:45;;;;;;;3.40;3.20;;;23.50;99.90;;;;;;6351876;28;20641;-59
2023/06/06 14:20:59;;;;;;;3.77;3.47;;;23.50;99.90;;;;;;6351237;28;20568;-60
2023/06/06 14:24:02;;;;;;;3.17;2.80;;;23.50;99.90;;;;;;6351522;28;20240;-60
2023/06/06 14:27:08;;;;;;;2.20;2.00;;;23.30;99.90;;;;;;6351319;28;20236;-60
2023/06/06 14:30:12;;;;;;;2.63;2.30;;;23.20;99.90;;;;;;6350787;28;20237;-60
2023/06/06 14:33:15;;;;;;;2.27;1.90;;;22.90;99.90;;;;;;6329211;28;20237;-60
2023/06/06 14:36:19;;;;;;;3.33;2.20;;;22.80;99.90;;;;;;6325846;28;20234;-60
2023/06/06 14:39:22;;;;;;;2.07;1.87;;;22.80;99.90;;;;;;6325742;28;20248;-60
2023/06/06 14:42:28;;;;;;;2.33;1.77;;;22.80;99.90;;;;;;6325945;28;20247;-59
2023/06/06 14:45:31;;;;;;;2.20;2.00;;;22.80;99.90;;;;;;6325051;28;20234;-61
2023/06/06 14:48:34;;;;;;;3.50;2.37;;;22.90;99.90;;;;;;6325480;28;20230;-59
2023/06/06 14:51:37;;;;;;;2.23;2.00;;;22.90;99.90;;;;;;6325303;28;20666;-60
2023/06/06 14:54:43;;;;;;;2.60;1.90;;;22.60;99.90;;;;;;6325559;28;20230;-59
2023/06/06 14:57:48;;;;;;;2.50;1.87;;;22.40;99.90;;;;;;6325338;28;20237;-59
2023/06/06 15:00:51;;;;;;;2.20;2.00;;;22.20;99.90;;;;;;6324882;28;20674;-59
2023/06/06 15:03:55;;;;;;;2.30;2.10;;;22.00;99.90;;;;;;6323904;28;20230;-58
2023/06/06 15:06:59;;;;;;;7.70;2.50;;;21.80;99.90;;;;;;6324699;28;20230;-60
2023/06/06 15:10:02;;;;;;;2.57;2.00;;;21.50;99.90;;;;;;6324562;28;20692;-59
2023/06/06 15:13:07;;;;;;;2.47;2.10;;;21.40;99.90;;;;;;6324306;28;20562;-60
2023/06/06 15:16:10;;;;;;;2.00;1.90;;;21.10;99.90;;;;;;6324775;28;20313;-59
2023/06/06 15:19:13;;;;;;;2.57;2.37;;;21.00;99.90;;;;;;6324990;28;20314;-60
2023/06/06 15:22:18;;;;;;;2.40;2.20;;;20.90;99.90;;;;;;6315973;28;20245;-60
2023/06/06 15:25:22;;;;;;;2.93;2.30;;;20.80;99.90;;;;;;6324728;28;20721;-60
2023/06/06 15:28:26;;;;;;;2.30;2.10;;;20.70;99.90;;;;;;6323916;28;20230;-60
2023/06/06 15:31:29;;;;;;;2.97;2.00;;;20.70;99.90;;;;;;6322250;28;20574;-59
2023/06/06 15:34:35;;;;;;;3.50;2.80;;;20.70;99.90;;;;;;6319175;28;20218;-59
2023/06/06 15:37:38;;;;;;;4.40;2.40;;;20.70;99.90;;;;;;6323935;28;20697;-59
2023/06/06 15:40:41;;;;;;;3.27;2.97;;;20.60;99.90;;;;;;6343281;28;20229;-60
2023/06/06 15:43:46;;;;;;;3.90;3.13;;;20.50;99.90;;;;;;6349741;28;20950;-59
2023/06/06 15:46:49;;;;;;;3.83;2.73;;;20.40;99.90;;;;;;6350030;28;20312;-60
2023/06/06 15:49:54;;;;;;;3.63;2.47;;;20.40;99.90;;;;;;6350059;28;20685;-60
2023/06/06 15:52:58;;;;;;;4.73;2.83;;;20.30;99.90;;;;;;6349750;28;20342;-59
2023/06/06 15:56:01;;;;;;;3.47;2.43;;;20.20;99.90;;;;;;6349666;28;20229;-60
2023/06/06 15:59:05;;;;;;;3.40;2.23;;;20.10;99.90;;;;;;6349782;28;20320;-60